Muelle Paraguana, Venezuela
Current Conditions -  °F | °C
As of 5:00 PM on Tuesday 21 Oct 2014 (Local Time) from TNCA Reporting Station
Clear Clear  
Wind Chill: 86°   Ceiling: Unl
Heat Index: 97°   Visibility: 6mi
Dew Point: 77°   Wind: 17mph
Humidity: 74%   Direction: 80°E
Pressure: 29.77"   Gusts: NA
Location:  11.78°N, 70.15°W
Report Text: TNCA 212100Z 08015KT 9999 FW018 30/25 Q1008 A2978 NOSIG
Loading
Personal Weather Stations






























Interactive Weather Map New forecast layout! Learn more

10-Day Weather Forecast

Advertisements
Track Severe Weather on mobile